首页
METAR-TAF:

METAR-TAF

机场 :

埃莱夫西纳, 希腊

纬度: 38-04N, 经度: 023-33E, 海拔: 44米

当前天气观测

该预报发布于26分钟前的23:50 UTC
风速3节,风向多变
温度 12°C
湿度 94%
气压 1009 hPa
能见度10公里或以上
多云层高于2500英尺
多云层高于7000英尺

METAR: LGEL 092350Z VRB03KT 9999 BKN025 BKN070 12/11 Q1009

时间: 02:16 (00:16 UTC)

预报

该预报发布于1小时和16分钟前的23:00 UTC
预报有效从10日的 00点(UTC)到 10日的 24点(UTC)
风速5节,风向多变
能见度10公里或以上
散云层高于2000英尺
散云层高于7000英尺
几率 40% :
短暂存在
从 10日的 00点(UTC)到 10日的 24点(UTC)
能見度: 5000
少量云层高于1600英尺
多云层高于2000英尺
几率 40% :
短暂存在
从 10日的 00点(UTC)到 10日的 24点(UTC)
能見度: 3000
散云层高于1600英尺
少量云层高于1800英尺, 积雨云.
多云层高于2000英尺
阴天层高于6000英尺
雷暴, 雨
成为
从 10日的 09点(UTC)到 10日的 11点(UTC)
风速12节,风向南转南东,有时为22节阵风

TAF: LGEL 092300Z 1000/1024 VRB05KT 9999 SCT020 SCT070 PROB40 TEMPO 1000/1024 5000 RA FEW016 BKN020 PROB40 TEMPO 1000/1024 3000 TSRA SCT016 FEW018CB BKN020 OVC060 BECMG 1009/1011 16012G22KT

超过4000个机场的气象观测和天气预报(METAR&TAF报告)。

可查询的气象台以黄色和红色小点在地图上表示。

将鼠标移到小点上方,可查看气象台名称。

然后点击查看天气观测和预报。

如需切换地图:点击带黑十字的绿色按钮放大地图;点击带横线的绿色按钮缩小地图;或者点击绿色箭头查看邻近地区的地图。


METAR-TAF: